KOCH

Nacogdoches A L Mangham Jr Regional Airport

Nacogdoches, Texas, USA
METAR KOCH 231156Z AUTO 00000KT 10SM 12/09 A3018 RMK AO2 SLP225 60000 T01220094 10128 20117 51004 $
Observed Flight Rules
Oct-23 @ 11:56 UTC (12 minutes ago)
Visibility
10 miles
Temperatures Readings
Current 12°C / 54°F
Dewpoint 9°C / 48°F
Humidity 82%
Altimeter 30.18" Hg
Pressure 1022.5 hPa
Elevation 108
METAR KOCH 231156Z AUTO 00000KT 10SM 12/09 A3018 RMK AO2 SLP225 60000 T01220094 10128 20117 51004 $
Observed Flight Rules
Oct-23 @ 11:56 UTC
(12 minutes ago)
Temperature Dewpoint
12°C / 54°F 9°C / 48°F
Humidity Altimeter Pressure
82% 30.18" Hg 1022.5 hPa